sensor_id;sensor_type;location;lat;lon;timestamp;P1;durP1;ratioP1;P2;durP2;ratioP2
1416;SDS011;703;51.162;13.574;2023-03-01T00:00:37;52.25;;;22.38;;
1416;SDS011;703;51.162;13.574;2023-03-01T00:03:03;52.20;;;22.77;;
1416;SDS011;703;51.162;13.574;2023-03-01T00:05:30;52.30;;;22.83;;
1416;SDS011;703;51.162;13.574;2023-03-01T00:07:56;54.57;;;24.80;;
1416;SDS011;703;51.162;13.574;2023-03-01T00:10:22;55.40;;;23.97;;
1416;SDS011;703;51.162;13.574;2023-03-01T00:12:48;51.43;;;22.17;;
1416;SDS011;703;51.162;13.574;2023-03-01T00:15:14;58.88;;;24.58;;
1416;SDS011;703;51.162;13.574;2023-03-01T00:17:40;55.22;;;23.15;;
1416;SDS011;703;51.162;13.574;2023-03-01T00:20:06;55.00;;;25.70;;
1416;SDS011;703;51.162;13.574;2023-03-01T00:22:35;54.80;;;24.63;;
1416;SDS011;703;51.162;13.574;2023-03-01T00:25:02;55.95;;;26.85;;
1416;SDS011;703;51.162;13.574;2023-03-01T00:27:28;53.85;;;24.77;;
1416;SDS011;703;51.162;13.574;2023-03-01T00:29:54;55.72;;;24.85;;
1416;SDS011;703;51.162;13.574;2023-03-01T00:32:20;55.95;;;26.40;;
1416;SDS011;703;51.162;13.574;2023-03-01T00:34:46;58.60;;;27.10;;
1416;SDS011;703;51.162;13.574;2023-03-01T00:37:19;54.53;;;24.83;;
1416;SDS011;703;51.162;13.574;2023-03-01T00:39:46;55.97;;;24.92;;
1416;SDS011;703;51.162;13.574;2023-03-01T00:42:12;55.22;;;25.42;;
1416;SDS011;703;51.162;13.574;2023-03-01T00:44:38;57.42;;;26.63;;
1416;SDS011;703;51.162;13.574;2023-03-01T00:47:04;54.03;;;24.50;;
1416;SDS011;703;51.162;13.574;2023-03-01T00:49:30;55.13;;;24.07;;
1416;SDS011;703;51.162;13.574;2023-03-01T00:51:56;53.45;;;23.52;;
1416;SDS011;703;51.162;13.574;2023-03-01T00:54:22;52.20;;;23.57;;
1416;SDS011;703;51.162;13.574;2023-03-01T00:56:47;53.53;;;24.03;;
1416;SDS011;703;51.162;13.574;2023-03-01T00:59:13;56.40;;;24.40;;
1416;SDS011;703;51.162;13.574;2023-03-01T01:01:39;54.20;;;25.00;;
1416;SDS011;703;51.162;13.574;2023-03-01T01:04:06;54.97;;;23.73;;
1416;SDS011;703;51.162;13.574;2023-03-01T01:06:37;53.25;;;22.50;;
1416;SDS011;703;51.162;13.574;2023-03-01T01:09:04;54.95;;;24.50;;
1416;SDS011;703;51.162;13.574;2023-03-01T01:11:31;54.38;;;24.55;;
1416;SDS011;703;51.162;13.574;2023-03-01T01:13:58;54.38;;;24.70;;
1416;SDS011;703;51.162;13.574;2023-03-01T01:16:24;51.10;;;21.38;;
1416;SDS011;703;51.162;13.574;2023-03-01T01:18:51;50.97;;;22.83;;
1416;SDS011;703;51.162;13.574;2023-03-01T01:21:18;52.47;;;23.42;;
1416;SDS011;703;51.162;13.574;2023-03-01T01:23:44;52.63;;;23.23;;
1416;SDS011;703;51.162;13.574;2023-03-01T01:26:13;52.70;;;22.50;;
1416;SDS011;703;51.162;13.574;2023-03-01T01:28:40;54.17;;;23.33;;
1416;SDS011;703;51.162;13.574;2023-03-01T01:31:08;56.95;;;25.85;;
1416;SDS011;703;51.162;13.574;2023-03-01T01:33:37;53.78;;;23.80;;
1416;SDS011;703;51.162;13.574;2023-03-01T01:36:12;53.97;;;24.33;;
1416;SDS011;703;51.162;13.574;2023-03-01T01:38:39;56.90;;;24.05;;
1416;SDS011;703;51.162;13.574;2023-03-01T01:41:07;56.90;;;26.45;;
1416;SDS011;703;51.162;13.574;2023-03-01T01:43:37;55.95;;;24.27;;
1416;SDS011;703;51.162;13.574;2023-03-01T01:48:49;52.78;;;23.05;;
1416;SDS011;703;51.162;13.574;2023-03-01T01:51:18;55.55;;;23.67;;
1416;SDS011;703;51.162;13.574;2023-03-01T01:53:48;55.63;;;25.10;;
1416;SDS011;703;51.162;13.574;2023-03-01T01:56:16;55.35;;;24.13;;
1416;SDS011;703;51.162;13.574;2023-03-01T01:58:43;53.53;;;24.10;;
1416;SDS011;703;51.162;13.574;2023-03-01T02:01:10;54.63;;;24.13;;
1416;SDS011;703;51.162;13.574;2023-03-01T02:03:37;51.13;;;23.13;;
1416;SDS011;703;51.162;13.574;2023-03-01T02:08:33;52.63;;;23.98;;
1416;SDS011;703;51.162;13.574;2023-03-01T02:11:01;53.00;;;23.58;;
1416;SDS011;703;51.162;13.574;2023-03-01T02:13:31;59.15;;;27.88;;
1416;SDS011;703;51.162;13.574;2023-03-01T02:15:58;54.40;;;24.67;;
1416;SDS011;703;51.162;13.574;2023-03-01T02:18:25;55.22;;;24.98;;
1416;SDS011;703;51.162;13.574;2023-03-01T02:23:27;53.28;;;23.75;;
1416;SDS011;703;51.162;13.574;2023-03-01T02:28:38;55.08;;;26.67;;
1416;SDS011;703;51.162;13.574;2023-03-01T02:31:07;57.33;;;26.90;;
1416;SDS011;703;51.162;13.574;2023-03-01T02:33:52;53.97;;;24.45;;
1416;SDS011;703;51.162;13.574;2023-03-01T02:36:23;59.20;;;26.73;;
1416;SDS011;703;51.162;13.574;2023-03-01T02:38:54;55.63;;;27.05;;
1416;SDS011;703;51.162;13.574;2023-03-01T02:41:25;54.00;;;24.88;;
1416;SDS011;703;51.162;13.574;2023-03-01T02:43:53;55.60;;;26.83;;
1416;SDS011;703;51.162;13.574;2023-03-01T02:46:26;56.40;;;29.35;;
1416;SDS011;703;51.162;13.574;2023-03-01T02:48:56;62.80;;;28.13;;
1416;SDS011;703;51.162;13.574;2023-03-01T02:54:16;60.58;;;28.80;;
1416;SDS011;703;51.162;13.574;2023-03-01T02:56:45;58.33;;;27.25;;
1416;SDS011;703;51.162;13.574;2023-03-01T02:59:16;56.03;;;24.75;;
1416;SDS011;703;51.162;13.574;2023-03-01T03:01:45;60.90;;;28.30;;
1416;SDS011;703;51.162;13.574;2023-03-01T03:04:16;60.92;;;29.67;;
1416;SDS011;703;51.162;13.574;2023-03-01T03:06:49;62.25;;;32.45;;
1416;SDS011;703;51.162;13.574;2023-03-01T03:09:19;59.22;;;28.23;;
1416;SDS011;703;51.162;13.574;2023-03-01T03:11:51;59.20;;;28.08;;
1416;SDS011;703;51.162;13.574;2023-03-01T03:14:17;56.28;;;27.48;;
1416;SDS011;703;51.162;13.574;2023-03-01T03:16:49;58.88;;;28.92;;
1416;SDS011;703;51.162;13.574;2023-03-01T03:19:15;58.70;;;27.40;;
1416;SDS011;703;51.162;13.574;2023-03-01T03:21:45;60.20;;;27.40;;
1416;SDS011;703;51.162;13.574;2023-03-01T03:24:16;64.82;;;30.15;;
1416;SDS011;703;51.162;13.574;2023-03-01T03:26:43;57.20;;;28.48;;
1416;SDS011;703;51.162;13.574;2023-03-01T03:29:11;60.63;;;28.83;;
1416;SDS011;703;51.162;13.574;2023-03-01T03:31:39;60.47;;;28.85;;
1416;SDS011;703;51.162;13.574;2023-03-01T03:34:13;59.97;;;28.52;;
1416;SDS011;703;51.162;13.574;2023-03-01T03:36:45;58.45;;;28.67;;
1416;SDS011;703;51.162;13.574;2023-03-01T03:39:15;63.30;;;31.20;;
1416;SDS011;703;51.162;13.574;2023-03-01T03:41:41;64.70;;;30.50;;
1416;SDS011;703;51.162;13.574;2023-03-01T03:44:12;62.97;;;30.70;;
1416;SDS011;703;51.162;13.574;2023-03-01T03:46:57;66.72;;;29.80;;
1416;SDS011;703;51.162;13.574;2023-03-01T03:49:28;64.63;;;31.15;;
1416;SDS011;703;51.162;13.574;2023-03-01T03:52:04;64.20;;;30.38;;
1416;SDS011;703;51.162;13.574;2023-03-01T03:54:39;60.05;;;28.23;;
1416;SDS011;703;51.162;13.574;2023-03-01T03:57:05;62.20;;;30.77;;
1416;SDS011;703;51.162;13.574;2023-03-01T03:59:36;61.20;;;29.77;;
1416;SDS011;703;51.162;13.574;2023-03-01T04:02:05;62.65;;;31.05;;
1416;SDS011;703;51.162;13.574;2023-03-01T04:04:33;63.05;;;31.45;;
1416;SDS011;703;51.162;13.574;2023-03-01T04:07:00;60.33;;;29.45;;
1416;SDS011;703;51.162;13.574;2023-03-01T04:09:26;60.63;;;31.70;;
1416;SDS011;703;51.162;13.574;2023-03-01T04:11:57;64.13;;;34.35;;
1416;SDS011;703;51.162;13.574;2023-03-01T04:14:31;62.20;;;33.65;;
1416;SDS011;703;51.162;13.574;2023-03-01T04:16:58;58.60;;;29.80;;
1416;SDS011;703;51.162;13.574;2023-03-01T04:19:35;58.85;;;28.88;;
1416;SDS011;703;51.162;13.574;2023-03-01T04:22:20;61.60;;;30.80;;
1416;SDS011;703;51.162;13.574;2023-03-01T04:24:54;65.70;;;29.42;;
1416;SDS011;703;51.162;13.574;2023-03-01T04:27:25;64.22;;;31.08;;
1416;SDS011;703;51.162;13.574;2023-03-01T04:29:53;63.47;;;30.60;;
1416;SDS011;703;51.162;13.574;2023-03-01T04:32:20;62.17;;;32.00;;
1416;SDS011;703;51.162;13.574;2023-03-01T04:34:51;61.45;;;30.50;;
1416;SDS011;703;51.162;13.574;2023-03-01T04:37:20;61.00;;;29.58;;
1416;SDS011;703;51.162;13.574;2023-03-01T04:39:48;70.22;;;33.40;;
1416;SDS011;703;51.162;13.574;2023-03-01T04:42:17;64.28;;;30.08;;
1416;SDS011;703;51.162;13.574;2023-03-01T04:44:45;59.78;;;29.27;;
1416;SDS011;703;51.162;13.574;2023-03-01T04:47:20;60.28;;;30.83;;
1416;SDS011;703;51.162;13.574;2023-03-01T04:49:48;64.60;;;30.47;;
1416;SDS011;703;51.162;13.574;2023-03-01T04:52:14;63.75;;;30.48;;
1416;SDS011;703;51.162;13.574;2023-03-01T04:54:44;63.40;;;32.72;;
1416;SDS011;703;51.162;13.574;2023-03-01T04:57:16;62.85;;;30.25;;
1416;SDS011;703;51.162;13.574;2023-03-01T04:59:55;63.78;;;33.33;;
1416;SDS011;703;51.162;13.574;2023-03-01T05:02:22;64.35;;;33.05;;
1416;SDS011;703;51.162;13.574;2023-03-01T05:04:53;62.30;;;30.25;;
1416;SDS011;703;51.162;13.574;2023-03-01T05:07:24;58.25;;;26.10;;
1416;SDS011;703;51.162;13.574;2023-03-01T05:09:53;60.75;;;30.40;;
1416;SDS011;703;51.162;13.574;2023-03-01T05:12:21;63.60;;;30.90;;
1416;SDS011;703;51.162;13.574;2023-03-01T05:14:48;63.20;;;32.13;;
1416;SDS011;703;51.162;13.574;2023-03-01T05:17:18;64.25;;;30.70;;
1416;SDS011;703;51.162;13.574;2023-03-01T05:19:47;60.75;;;28.30;;
1416;SDS011;703;51.162;13.574;2023-03-01T05:22:24;62.33;;;30.30;;
1416;SDS011;703;51.162;13.574;2023-03-01T05:24:53;64.10;;;29.73;;
1416;SDS011;703;51.162;13.574;2023-03-01T05:27:21;66.88;;;29.60;;
1416;SDS011;703;51.162;13.574;2023-03-01T05:29:52;60.33;;;29.83;;
1416;SDS011;703;51.162;13.574;2023-03-01T05:32:21;60.33;;;29.63;;
1416;SDS011;703;51.162;13.574;2023-03-01T05:34:50;58.63;;;27.40;;
1416;SDS011;703;51.162;13.574;2023-03-01T05:37:28;61.65;;;29.70;;
1416;SDS011;703;51.162;13.574;2023-03-01T05:39:57;61.50;;;29.60;;
1416;SDS011;703;51.162;13.574;2023-03-01T05:42:23;62.47;;;29.10;;
1416;SDS011;703;51.162;13.574;2023-03-01T05:44:52;59.13;;;29.20;;
1416;SDS011;703;51.162;13.574;2023-03-01T05:47:23;58.05;;;30.10;;
1416;SDS011;703;51.162;13.574;2023-03-01T05:49:49;62.17;;;29.63;;
1416;SDS011;703;51.162;13.574;2023-03-01T05:52:18;59.08;;;28.35;;
1416;SDS011;703;51.162;13.574;2023-03-01T05:54:49;60.85;;;27.88;;
1416;SDS011;703;51.162;13.574;2023-03-01T05:57:17;60.30;;;30.45;;
1416;SDS011;703;51.162;13.574;2023-03-01T05:59:53;58.63;;;27.20;;
1416;SDS011;703;51.162;13.574;2023-03-01T06:02:22;62.38;;;30.17;;
1416;SDS011;703;51.162;13.574;2023-03-01T06:04:52;61.45;;;28.27;;
1416;SDS011;703;51.162;13.574;2023-03-01T06:07:21;61.78;;;31.02;;
1416;SDS011;703;51.162;13.574;2023-03-01T06:09:52;63.72;;;31.75;;
1416;SDS011;703;51.162;13.574;2023-03-01T06:12:41;63.70;;;31.60;;
1416;SDS011;703;51.162;13.574;2023-03-01T06:15:10;61.97;;;32.33;;
1416;SDS011;703;51.162;13.574;2023-03-01T06:17:41;59.15;;;31.42;;
1416;SDS011;703;51.162;13.574;2023-03-01T06:20:22;61.13;;;30.65;;
1416;SDS011;703;51.162;13.574;2023-03-01T06:22:54;58.47;;;31.48;;
1416;SDS011;703;51.162;13.574;2023-03-01T06:25:24;63.95;;;32.22;;
1416;SDS011;703;51.162;13.574;2023-03-01T06:27:50;66.65;;;31.73;;
1416;SDS011;703;51.162;13.574;2023-03-01T06:30:22;59.75;;;30.35;;
1416;SDS011;703;51.162;13.574;2023-03-01T06:32:56;60.75;;;29.17;;
1416;SDS011;703;51.162;13.574;2023-03-01T06:35:25;61.80;;;31.13;;
1416;SDS011;703;51.162;13.574;2023-03-01T06:37:57;61.97;;;31.50;;
1416;SDS011;703;51.162;13.574;2023-03-01T06:40:26;60.25;;;31.27;;
1416;SDS011;703;51.162;13.574;2023-03-01T06:42:55;64.32;;;33.22;;
1416;SDS011;703;51.162;13.574;2023-03-01T06:45:36;62.08;;;32.90;;
1416;SDS011;703;51.162;13.574;2023-03-01T06:48:07;65.15;;;32.75;;
1416;SDS011;703;51.162;13.574;2023-03-01T06:50:39;64.88;;;33.60;;
1416;SDS011;703;51.162;13.574;2023-03-01T06:53:07;61.42;;;30.77;;
1416;SDS011;703;51.162;13.574;2023-03-01T06:55:36;66.75;;;35.30;;
1416;SDS011;703;51.162;13.574;2023-03-01T06:58:02;62.78;;;31.15;;
1416;SDS011;703;51.162;13.574;2023-03-01T07:00:33;64.03;;;32.70;;
1416;SDS011;703;51.162;13.574;2023-03-01T07:03:00;60.88;;;30.92;;
1416;SDS011;703;51.162;13.574;2023-03-01T07:05:29;57.80;;;29.58;;
1416;SDS011;703;51.162;13.574;2023-03-01T07:07:56;64.53;;;30.83;;
1416;SDS011;703;51.162;13.574;2023-03-01T07:10:22;66.60;;;35.05;;
1416;SDS011;703;51.162;13.574;2023-03-01T07:12:48;66.15;;;33.10;;
1416;SDS011;703;51.162;13.574;2023-03-01T07:15:16;65.13;;;33.50;;
1416;SDS011;703;51.162;13.574;2023-03-01T07:17:45;61.22;;;32.10;;
1416;SDS011;703;51.162;13.574;2023-03-01T07:20:15;70.13;;;38.28;;
1416;SDS011;703;51.162;13.574;2023-03-01T07:22:43;70.10;;;37.70;;
1416;SDS011;703;51.162;13.574;2023-03-01T07:25:10;74.13;;;37.60;;
1416;SDS011;703;51.162;13.574;2023-03-01T07:27:36;66.90;;;35.67;;
1416;SDS011;703;51.162;13.574;2023-03-01T07:30:05;71.67;;;36.00;;
1416;SDS011;703;51.162;13.574;2023-03-01T07:32:34;67.60;;;36.17;;
1416;SDS011;703;51.162;13.574;2023-03-01T07:35:05;63.70;;;33.77;;
1416;SDS011;703;51.162;13.574;2023-03-01T07:37:31;65.13;;;33.33;;
1416;SDS011;703;51.162;13.574;2023-03-01T07:39:57;66.97;;;34.70;;
1416;SDS011;703;51.162;13.574;2023-03-01T07:42:23;62.40;;;35.30;;
1416;SDS011;703;51.162;13.574;2023-03-01T07:44:49;62.23;;;34.30;;
1416;SDS011;703;51.162;13.574;2023-03-01T07:47:15;68.33;;;37.10;;
1416;SDS011;703;51.162;13.574;2023-03-01T07:49:44;66.33;;;37.13;;
1416;SDS011;703;51.162;13.574;2023-03-01T07:52:10;70.97;;;38.20;;
1416;SDS011;703;51.162;13.574;2023-03-01T07:54:39;66.80;;;36.17;;
1416;SDS011;703;51.162;13.574;2023-03-01T07:57:05;67.50;;;36.60;;
1416;SDS011;703;51.162;13.574;2023-03-01T07:59:34;65.67;;;36.97;;
1416;SDS011;703;51.162;13.574;2023-03-01T08:02:03;63.37;;;35.70;;
1416;SDS011;703;51.162;13.574;2023-03-01T08:04:34;62.80;;;33.97;;
1416;SDS011;703;51.162;13.574;2023-03-01T08:07:00;67.07;;;37.37;;
1416;SDS011;703;51.162;13.574;2023-03-01T08:09:26;66.70;;;39.17;;
1416;SDS011;703;51.162;13.574;2023-03-01T08:11:56;62.93;;;36.07;;
1416;SDS011;703;51.162;13.574;2023-03-01T08:14:26;62.07;;;35.90;;
1416;SDS011;703;51.162;13.574;2023-03-01T08:16:58;62.97;;;35.40;;
1416;SDS011;703;51.162;13.574;2023-03-01T08:19:31;63.67;;;36.17;;
1416;SDS011;703;51.162;13.574;2023-03-01T08:22:01;66.43;;;37.77;;
1416;SDS011;703;51.162;13.574;2023-03-01T08:24:27;68.90;;;38.23;;
1416;SDS011;703;51.162;13.574;2023-03-01T08:26:54;61.93;;;36.33;;
1416;SDS011;703;51.162;13.574;2023-03-01T08:29:20;68.80;;;37.17;;
1416;SDS011;703;51.162;13.574;2023-03-01T08:31:46;63.80;;;37.90;;
1416;SDS011;703;51.162;13.574;2023-03-01T08:34:16;64.57;;;37.00;;
1416;SDS011;703;51.162;13.574;2023-03-01T08:36:42;67.13;;;37.70;;
1416;SDS011;703;51.162;13.574;2023-03-01T08:39:13;60.97;;;34.60;;
1416;SDS011;703;51.162;13.574;2023-03-01T08:41:42;61.60;;;36.03;;
1416;SDS011;703;51.162;13.574;2023-03-01T08:44:12;66.10;;;37.67;;
1416;SDS011;703;51.162;13.574;2023-03-01T08:46:39;63.70;;;34.50;;
1416;SDS011;703;51.162;13.574;2023-03-01T08:49:06;57.87;;;33.13;;
1416;SDS011;703;51.162;13.574;2023-03-01T08:51:33;61.70;;;33.83;;
1416;SDS011;703;51.162;13.574;2023-03-01T08:54:05;64.97;;;37.77;;
1416;SDS011;703;51.162;13.574;2023-03-01T08:56:34;65.30;;;35.10;;
1416;SDS011;703;51.162;13.574;2023-03-01T08:59:02;61.07;;;36.87;;
1416;SDS011;703;51.162;13.574;2023-03-01T09:01:28;67.73;;;38.03;;
1416;SDS011;703;51.162;13.574;2023-03-01T09:03:54;62.50;;;36.20;;
1416;SDS011;703;51.162;13.574;2023-03-01T09:06:20;63.47;;;38.57;;
1416;SDS011;703;51.162;13.574;2023-03-01T09:08:47;59.77;;;35.33;;
1416;SDS011;703;51.162;13.574;2023-03-01T09:11:14;62.67;;;36.93;;
1416;SDS011;703;51.162;13.574;2023-03-01T09:13:45;61.67;;;36.00;;
1416;SDS011;703;51.162;13.574;2023-03-01T09:16:12;62.50;;;32.73;;
1416;SDS011;703;51.162;13.574;2023-03-01T09:18:42;60.57;;;34.87;;
1416;SDS011;703;51.162;13.574;2023-03-01T09:21:10;63.07;;;37.30;;
1416;SDS011;703;51.162;13.574;2023-03-01T09:23:39;58.50;;;33.30;;
1416;SDS011;703;51.162;13.574;2023-03-01T09:26:14;59.47;;;33.67;;
1416;SDS011;703;51.162;13.574;2023-03-01T09:28:44;65.90;;;35.60;;
1416;SDS011;703;51.162;13.574;2023-03-01T09:31:14;54.27;;;29.43;;
1416;SDS011;703;51.162;13.574;2023-03-01T09:33:40;54.87;;;29.67;;
1416;SDS011;703;51.162;13.574;2023-03-01T09:36:09;59.00;;;32.20;;
1416;SDS011;703;51.162;13.574;2023-03-01T09:38:36;55.63;;;28.90;;
1416;SDS011;703;51.162;13.574;2023-03-01T09:41:02;60.40;;;33.60;;
1416;SDS011;703;51.162;13.574;2023-03-01T09:46:08;55.73;;;30.57;;
1416;SDS011;703;51.162;13.574;2023-03-01T09:48:41;55.63;;;29.10;;
1416;SDS011;703;51.162;13.574;2023-03-01T09:51:09;53.03;;;28.53;;
1416;SDS011;703;51.162;13.574;2023-03-01T09:53:51;56.70;;;28.90;;
1416;SDS011;703;51.162;13.574;2023-03-01T09:56:20;50.47;;;26.63;;
1416;SDS011;703;51.162;13.574;2023-03-01T09:58:50;54.57;;;28.57;;
1416;SDS011;703;51.162;13.574;2023-03-01T10:01:38;53.50;;;29.27;;
1416;SDS011;703;51.162;13.574;2023-03-01T10:09:30;54.63;;;31.00;;
1416;SDS011;703;51.162;13.574;2023-03-01T10:11:57;53.40;;;29.30;;
1416;SDS011;703;51.162;13.574;2023-03-01T10:19:40;50.83;;;26.37;;
1416;SDS011;703;51.162;13.574;2023-03-01T10:22:26;50.87;;;26.20;;
1416;SDS011;703;51.162;13.574;2023-03-01T10:24:57;49.00;;;25.40;;
1416;SDS011;703;51.162;13.574;2023-03-01T10:27:26;53.33;;;25.97;;
1416;SDS011;703;51.162;13.574;2023-03-01T10:30:06;51.33;;;25.83;;
1416;SDS011;703;51.162;13.574;2023-03-01T10:32:33;50.53;;;26.50;;
1416;SDS011;703;51.162;13.574;2023-03-01T10:35:14;49.73;;;25.20;;
1416;SDS011;703;51.162;13.574;2023-03-01T10:37:46;49.77;;;26.07;;
1416;SDS011;703;51.162;13.574;2023-03-01T10:40:22;50.03;;;26.23;;
1416;SDS011;703;51.162;13.574;2023-03-01T10:42:51;50.00;;;25.37;;
1416;SDS011;703;51.162;13.574;2023-03-01T10:45:38;49.10;;;26.27;;
1416;SDS011;703;51.162;13.574;2023-03-01T10:50:34;50.00;;;26.53;;
1416;SDS011;703;51.162;13.574;2023-03-01T10:53:04;50.80;;;26.73;;
1416;SDS011;703;51.162;13.574;2023-03-01T10:55:37;49.90;;;27.03;;
1416;SDS011;703;51.162;13.574;2023-03-01T11:00:33;46.57;;;23.17;;
1416;SDS011;703;51.162;13.574;2023-03-01T11:03:12;49.20;;;25.17;;
1416;SDS011;703;51.162;13.574;2023-03-01T11:05:56;47.60;;;22.83;;
1416;SDS011;703;51.162;13.574;2023-03-01T11:11:50;48.93;;;25.67;;
1416;SDS011;703;51.162;13.574;2023-03-01T11:16:42;48.33;;;24.10;;
1416;SDS011;703;51.162;13.574;2023-03-01T11:19:14;47.10;;;22.90;;
1416;SDS011;703;51.162;13.574;2023-03-01T11:21:50;46.60;;;23.50;;
1416;SDS011;703;51.162;13.574;2023-03-01T11:26:59;45.73;;;21.87;;
1416;SDS011;703;51.162;13.574;2023-03-01T11:29:37;45.37;;;22.93;;
1416;SDS011;703;51.162;13.574;2023-03-01T11:32:09;45.60;;;22.87;;
1416;SDS011;703;51.162;13.574;2023-03-01T11:37:28;43.60;;;21.53;;
1416;SDS011;703;51.162;13.574;2023-03-01T11:40:13;44.10;;;22.20;;
1416;SDS011;703;51.162;13.574;2023-03-01T11:43:24;44.13;;;22.10;;
1416;SDS011;703;51.162;13.574;2023-03-01T11:45:41;45.73;;;23.60;;
1416;SDS011;703;51.162;13.574;2023-03-01T11:50:47;45.03;;;23.63;;
1416;SDS011;703;51.162;13.574;2023-03-01T11:58:52;43.37;;;21.60;;
1416;SDS011;703;51.162;13.574;2023-03-01T12:04:18;42.30;;;19.53;;
1416;SDS011;703;51.162;13.574;2023-03-01T12:06:55;41.80;;;21.27;;
1416;SDS011;703;51.162;13.574;2023-03-01T12:17:22;41.90;;;21.50;;
1416;SDS011;703;51.162;13.574;2023-03-01T12:19:58;44.07;;;21.83;;
1416;SDS011;703;51.162;13.574;2023-03-01T12:25:41;45.27;;;26.87;;
1416;SDS011;703;51.162;13.574;2023-03-01T12:31:00;45.70;;;28.80;;
1416;SDS011;703;51.162;13.574;2023-03-01T12:36:19;45.20;;;29.90;;
1416;SDS011;703;51.162;13.574;2023-03-01T12:39:09;51.87;;;28.50;;
1416;SDS011;703;51.162;13.574;2023-03-01T12:41:43;45.57;;;31.63;;
1416;SDS011;703;51.162;13.574;2023-03-01T12:49:43;48.63;;;37.93;;
1416;SDS011;703;51.162;13.574;2023-03-01T12:55:02;45.77;;;31.30;;
1416;SDS011;703;51.162;13.574;2023-03-01T12:57:40;49.60;;;32.43;;
1416;SDS011;703;51.162;13.574;2023-03-01T13:00:32;44.57;;;30.50;;
1416;SDS011;703;51.162;13.574;2023-03-01T13:11:01;47.00;;;32.10;;
1416;SDS011;703;51.162;13.574;2023-03-01T13:13:29;47.67;;;32.23;;
1416;SDS011;703;51.162;13.574;2023-03-01T13:15:56;49.07;;;33.10;;
1416;SDS011;703;51.162;13.574;2023-03-01T13:20:50;44.77;;;30.63;;
1416;SDS011;703;51.162;13.574;2023-03-01T13:26:02;48.60;;;34.33;;
1416;SDS011;703;51.162;13.574;2023-03-01T13:31:02;47.90;;;35.10;;
1416;SDS011;703;51.162;13.574;2023-03-01T13:35:55;47.17;;;33.07;;
1416;SDS011;703;51.162;13.574;2023-03-01T13:41:06;47.13;;;30.83;;
1416;SDS011;703;51.162;13.574;2023-03-01T13:43:34;47.20;;;31.03;;
1416;SDS011;703;51.162;13.574;2023-03-01T13:46:02;49.63;;;35.57;;
1416;SDS011;703;51.162;13.574;2023-03-01T13:48:33;46.70;;;36.00;;
1416;SDS011;703;51.162;13.574;2023-03-01T13:51:03;44.57;;;31.60;;
1416;SDS011;703;51.162;13.574;2023-03-01T13:53:30;47.50;;;31.80;;
1416;SDS011;703;51.162;13.574;2023-03-01T13:56:42;47.30;;;31.20;;
1416;SDS011;703;51.162;13.574;2023-03-01T14:03:47;46.93;;;30.77;;
1416;SDS011;703;51.162;13.574;2023-03-01T14:06:15;43.93;;;27.80;;
1416;SDS011;703;51.162;13.574;2023-03-01T14:08:45;43.47;;;26.70;;
1416;SDS011;703;51.162;13.574;2023-03-01T14:14:09;43.03;;;27.80;;
1416;SDS011;703;51.162;13.574;2023-03-01T14:16:49;45.67;;;30.87;;
1416;SDS011;703;51.162;13.574;2023-03-01T14:21:46;44.90;;;29.40;;
1416;SDS011;703;51.162;13.574;2023-03-01T14:24:22;44.60;;;30.60;;
1416;SDS011;703;51.162;13.574;2023-03-01T14:26:49;44.90;;;28.70;;
1416;SDS011;703;51.162;13.574;2023-03-01T14:29:34;46.03;;;28.60;;
1416;SDS011;703;51.162;13.574;2023-03-01T14:32:24;45.30;;;30.07;;
1416;SDS011;703;51.162;13.574;2023-03-01T14:34:52;47.00;;;30.53;;
1416;SDS011;703;51.162;13.574;2023-03-01T14:37:19;46.60;;;34.30;;
1416;SDS011;703;51.162;13.574;2023-03-01T14:39:46;43.23;;;28.73;;
1416;SDS011;703;51.162;13.574;2023-03-01T14:42:13;43.20;;;25.90;;
1416;SDS011;703;51.162;13.574;2023-03-01T14:44:40;44.87;;;30.47;;
1416;SDS011;703;51.162;13.574;2023-03-01T14:47:29;44.80;;;30.97;;
1416;SDS011;703;51.162;13.574;2023-03-01T14:50:40;44.57;;;28.33;;
1416;SDS011;703;51.162;13.574;2023-03-01T14:52:48;44.70;;;31.50;;
1416;SDS011;703;51.162;13.574;2023-03-01T14:55:18;43.47;;;29.20;;
1416;SDS011;703;51.162;13.574;2023-03-01T14:57:49;43.00;;;26.63;;
1416;SDS011;703;51.162;13.574;2023-03-01T15:00:20;43.40;;;28.23;;
1416;SDS011;703;51.162;13.574;2023-03-01T15:02:53;45.67;;;28.47;;
1416;SDS011;703;51.162;13.574;2023-03-01T15:05:28;43.50;;;27.70;;
1416;SDS011;703;51.162;13.574;2023-03-01T15:07:57;47.20;;;23.77;;
1416;SDS011;703;51.162;13.574;2023-03-01T15:10:26;40.83;;;19.87;;
1416;SDS011;703;51.162;13.574;2023-03-01T15:12:54;40.67;;;20.67;;
1416;SDS011;703;51.162;13.574;2023-03-01T15:17:48;40.60;;;21.60;;
1416;SDS011;703;51.162;13.574;2023-03-01T15:20:17;41.57;;;21.87;;
1416;SDS011;703;51.162;13.574;2023-03-01T15:22:46;40.83;;;22.20;;
1416;SDS011;703;51.162;13.574;2023-03-01T15:25:16;40.23;;;20.80;;
1416;SDS011;703;51.162;13.574;2023-03-01T15:27:46;41.07;;;20.50;;
1416;SDS011;703;51.162;13.574;2023-03-01T15:30:14;40.53;;;18.70;;
1416;SDS011;703;51.162;13.574;2023-03-01T15:32:43;42.10;;;20.17;;
1416;SDS011;703;51.162;13.574;2023-03-01T15:37:54;39.37;;;18.43;;
1416;SDS011;703;51.162;13.574;2023-03-01T15:40:27;43.43;;;17.47;;
1416;SDS011;703;51.162;13.574;2023-03-01T15:43:00;41.47;;;20.50;;
1416;SDS011;703;51.162;13.574;2023-03-01T15:45:28;41.00;;;19.77;;
1416;SDS011;703;51.162;13.574;2023-03-01T15:48:00;40.17;;;18.70;;
1416;SDS011;703;51.162;13.574;2023-03-01T15:50:34;40.80;;;18.10;;
1416;SDS011;703;51.162;13.574;2023-03-01T15:53:03;46.30;;;19.93;;
1416;SDS011;703;51.162;13.574;2023-03-01T15:55:38;40.03;;;18.40;;
1416;SDS011;703;51.162;13.574;2023-03-01T15:58:14;39.23;;;18.53;;
1416;SDS011;703;51.162;13.574;2023-03-01T16:00:41;39.27;;;17.67;;
1416;SDS011;703;51.162;13.574;2023-03-01T16:03:08;39.00;;;17.50;;
1416;SDS011;703;51.162;13.574;2023-03-01T16:05:37;40.53;;;17.93;;
1416;SDS011;703;51.162;13.574;2023-03-01T16:10:54;40.23;;;19.30;;
1416;SDS011;703;51.162;13.574;2023-03-01T16:13:20;41.40;;;19.57;;
1416;SDS011;703;51.162;13.574;2023-03-01T16:15:46;39.50;;;17.93;;
1416;SDS011;703;51.162;13.574;2023-03-01T16:18:12;41.57;;;19.43;;
1416;SDS011;703;51.162;13.574;2023-03-01T16:20:38;43.37;;;20.73;;
1416;SDS011;703;51.162;13.574;2023-03-01T16:23:05;41.10;;;18.97;;
1416;SDS011;703;51.162;13.574;2023-03-01T16:25:32;43.83;;;21.37;;
1416;SDS011;703;51.162;13.574;2023-03-01T16:27:58;43.53;;;20.90;;
1416;SDS011;703;51.162;13.574;2023-03-01T16:30:28;44.67;;;22.67;;
1416;SDS011;703;51.162;13.574;2023-03-01T16:32:55;44.00;;;22.47;;
1416;SDS011;703;51.162;13.574;2023-03-01T16:35:21;45.37;;;23.93;;
1416;SDS011;703;51.162;13.574;2023-03-01T16:37:48;45.30;;;22.10;;
1416;SDS011;703;51.162;13.574;2023-03-01T16:42:44;46.43;;;24.00;;
1416;SDS011;703;51.162;13.574;2023-03-01T16:45:09;46.97;;;23.10;;
1416;SDS011;703;51.162;13.574;2023-03-01T16:47:36;45.63;;;24.17;;
1416;SDS011;703;51.162;13.574;2023-03-01T16:50:02;46.70;;;25.40;;
1416;SDS011;703;51.162;13.574;2023-03-01T16:52:28;46.13;;;21.87;;
1416;SDS011;703;51.162;13.574;2023-03-01T16:54:54;45.00;;;18.80;;
1416;SDS011;703;51.162;13.574;2023-03-01T16:57:20;43.80;;;18.67;;
1416;SDS011;703;51.162;13.574;2023-03-01T16:59:46;49.10;;;21.17;;
1416;SDS011;703;51.162;13.574;2023-03-01T17:02:12;47.60;;;21.93;;
1416;SDS011;703;51.162;13.574;2023-03-01T17:04:39;55.03;;;23.83;;